Time;durP1;ratioP1;P1;durP2;ratioP2;P2;SDS_P1;SDS_P2;PMS_P1;PMS_P2;Temp;Humidity;BMP_temperature;BMP_pressure;BME280_temperature;BME280_humidity;BME280_pressure;Samples;Min_cycle;Max_cycle;Signal;HPM_P1;HPM_P2
2022/04/13 00:00:30;;;;;;;;;2.00;1.00;;;;;;;;5053858;28;45527;-78
2022/04/13 00:02:56;;;;;;;;;1.00;1.00;;;;;;;;5054533;28;45256;-81
2022/04/13 00:05:21;;;;;;;;;1.75;1.50;;;;;;;;5054290;28;45603;-81
2022/04/13 00:07:47;;;;;;;;;1.50;1.50;;;;;;;;5050839;28;46321;-81
2022/04/13 00:10:12;;;;;;;;;0.25;0.25;;;;;;;;5055662;28;45542;-80
2022/04/13 00:12:37;;;;;;;;;2.25;2.25;;;;;;;;5054467;28;45366;-81
2022/04/13 00:15:04;;;;;;;;;2.00;1.00;;;;;;;;5054402;28;45502;-80
2022/04/13 00:17:30;;;;;;;;;2.50;2.50;;;;;;;;5038433;28;47366;-80
2022/04/13 00:19:55;;;;;;;;;1.75;1.75;;;;;;;;5054178;28;45368;-80
2022/04/13 00:22:20;;;;;;;;;2.25;2.00;;;;;;;;5055771;28;45503;-81
2022/04/13 00:24:45;;;;;;;;;1.50;1.25;;;;;;;;5043678;28;47479;-80
2022/04/13 00:27:10;;;;;;;;;2.00;2.00;;;;;;;;5056456;28;45503;-80
2022/04/13 00:29:36;;;;;;;;;3.25;3.25;;;;;;;;5055311;28;45330;-81
2022/04/13 00:32:03;;;;;;;;;2.25;2.25;;;;;;;;5050210;28;45468;-80
2022/04/13 00:34:29;;;;;;;;;1.75;1.75;;;;;;;;5054368;28;45299;-79
2022/04/13 00:36:57;;;;;;;;;1.75;1.75;;;;;;;;5054036;28;46225;-81
2022/04/13 00:39:22;;;;;;;;;2.00;1.75;;;;;;;;5053291;28;45563;-81
2022/04/13 00:41:48;;;;;;;;;3.50;2.75;;;;;;;;5053746;28;46649;-81
2022/04/13 00:44:13;;;;;;;;;1.00;1.00;;;;;;;;5054039;28;45371;-81
2022/04/13 00:46:38;;;;;;;;;0.75;0.75;;;;;;;;5053473;28;45432;-81
2022/04/13 00:49:04;;;;;;;;;3.75;2.50;;;;;;;;5055537;28;45371;-81
2022/04/13 00:51:29;;;;;;;;;2.00;1.50;;;;;;;;5053898;28;45509;-81
2022/04/13 00:53:59;;;;;;;;;2.00;1.00;;;;;;;;5038568;28;45453;-81
2022/04/13 00:56:25;;;;;;;;;5.25;4.25;;;;;;;;5053421;28;46288;-81
2022/04/13 00:58:52;;;;;;;;;2.75;2.75;;;;;;;;5053493;28;45280;-81
2022/04/13 01:01:18;;;;;;;;;3.00;3.00;;;;;;;;5057554;28;45388;-81
2022/04/13 01:03:44;;;;;;;;;2.00;2.00;;;;;;;;5056462;28;45592;-80
2022/04/13 01:06:09;;;;;;;;;3.25;2.00;;;;;;;;5053649;28;46224;-81
2022/04/13 01:08:36;;;;;;;;;1.75;1.75;;;;;;;;5037293;28;45521;-81
2022/04/13 01:11:01;;;;;;;;;0.00;0.00;;;;;;;;5054136;28;45484;-81
2022/04/13 01:13:27;;;;;;;;;2.25;2.25;;;;;;;;5054935;28;45478;-81
2022/04/13 01:15:52;;;;;;;;;2.50;2.50;;;;;;;;5054305;28;47159;-81
2022/04/13 01:18:18;;;;;;;;;3.25;1.00;;;;;;;;5051671;28;45894;-80
2022/04/13 01:20:52;;;;;;;;;3.00;1.50;;;;;;;;5053811;28;45302;-81
2022/04/13 01:23:18;;;;;;;;;2.50;2.50;;;;;;;;5053521;28;45621;-81
2022/04/13 01:25:47;;;;;;;;;2.50;2.50;;;;;;;;5052859;28;46270;-81
2022/04/13 01:28:12;;;;;;;;;2.00;1.00;;;;;;;;5055337;28;45507;-82
2022/04/13 01:30:37;;;;;;;;;2.50;1.25;;;;;;;;5052709;28;45429;-81
2022/04/13 01:33:03;;;;;;;;;3.25;2.25;;;;;;;;5053612;28;45558;-82
2022/04/13 01:35:28;;;;;;;;;1.00;1.00;;;;;;;;5053435;28;46850;-81
2022/04/13 01:37:54;;;;;;;;;1.50;1.00;;;;;;;;5053538;28;45376;-78
2022/04/13 01:40:19;;;;;;;;;2.50;1.50;;;;;;;;5054830;28;45306;-81
2022/04/13 01:42:47;;;;;;;;;3.00;2.75;;;;;;;;5054159;28;45245;-81
2022/04/13 01:45:19;;;;;;;;;1.75;1.75;;;;;;;;5052699;28;46417;-81
2022/04/13 01:47:44;;;;;;;;;3.25;2.25;;;;;;;;5052750;28;45423;-80
2022/04/13 01:50:09;;;;;;;;;5.00;4.00;;;;;;;;5051824;28;45401;-81
2022/04/13 01:52:35;;;;;;;;;2.75;1.75;;;;;;;;5053694;28;45371;-81
2022/04/13 01:55:00;;;;;;;;;4.00;4.00;;;;;;;;5052651;28;47387;-81
2022/04/13 01:57:25;;;;;;;;;4.50;4.25;;;;;;;;5052815;28;45659;-81
2022/04/13 01:59:50;;;;;;;;;2.75;2.75;;;;;;;;5052377;28;45359;-80
2022/04/13 02:02:16;;;;;;;;;2.00;2.00;;;;;;;;5050774;28;45375;-81
2022/04/13 02:04:41;;;;;;;;;2.25;1.00;;;;;;;;5053832;28;46961;-80
2022/04/13 02:07:06;;;;;;;;;4.75;1.75;;;;;;;;5058360;28;45383;-81
2022/04/13 02:09:32;;;;;;;;;3.00;3.00;;;;;;;;5054535;28;45229;-81
2022/04/13 02:11:57;;;;;;;;;4.25;3.25;;;;;;;;5056698;28;45364;-80
2022/04/13 02:14:22;;;;;;;;;2.50;2.50;;;;;;;;5056048;28;46267;-80
2022/04/13 02:16:47;;;;;;;;;2.00;1.00;;;;;;;;5055904;28;45331;-81
2022/04/13 02:19:12;;;;;;;;;2.75;2.75;;;;;;;;5058354;28;45242;-80
2022/04/13 02:21:38;;;;;;;;;4.25;2.75;;;;;;;;5054685;28;45277;-80
2022/04/13 02:24:04;;;;;;;;;2.50;2.50;;;;;;;;5055768;28;46227;-80
2022/04/13 02:26:29;;;;;;;;;2.75;2.75;;;;;;;;5055135;28;45402;-81
2022/04/13 02:28:54;;;;;;;;;2.00;2.00;;;;;;;;5053582;28;45536;-81
2022/04/13 02:31:20;;;;;;;;;4.00;2.00;;;;;;;;5056392;28;45455;-80
2022/04/13 02:33:45;;;;;;;;;3.75;3.50;;;;;;;;5055988;28;46489;-81
2022/04/13 02:36:11;;;;;;;;;4.50;3.50;;;;;;;;5057534;28;45357;-81
2022/04/13 02:38:36;;;;;;;;;3.00;2.00;;;;;;;;5054773;28;45352;-81
2022/04/13 02:41:02;;;;;;;;;3.75;2.25;;;;;;;;5055901;28;45247;-81
2022/04/13 02:43:28;;;;;;;;;2.00;2.00;;;;;;;;5055945;28;46230;-81
2022/04/13 02:45:53;;;;;;;;;3.75;2.75;;;;;;;;5056034;28;45580;-81
2022/04/13 02:48:18;;;;;;;;;5.50;5.50;;;;;;;;5055745;28;45653;-80
2022/04/13 02:50:43;;;;;;;;;2.75;1.00;;;;;;;;5057384;28;45415;-80
2022/04/13 02:53:09;;;;;;;;;3.25;2.75;;;;;;;;5056852;28;47275;-81
2022/04/13 02:55:34;;;;;;;;;4.25;4.25;;;;;;;;5055718;28;45508;-81
2022/04/13 02:57:59;;;;;;;;;3.00;3.00;;;;;;;;5056992;28;45545;-81
2022/04/13 03:00:24;;;;;;;;;3.00;3.00;;;;;;;;5055192;28;45524;-80
2022/04/13 03:02:50;;;;;;;;;3.75;3.00;;;;;;;;5054319;28;45351;-80
2022/04/13 03:05:15;;;;;;;;;5.50;2.75;;;;;;;;5054340;28;45442;-81
2022/04/13 03:07:40;;;;;;;;;2.50;2.50;;;;;;;;5055095;28;45274;-80
2022/04/13 03:10:06;;;;;;;;;6.00;2.00;;;;;;;;5056095;28;45395;-81
2022/04/13 03:12:35;;;;;;;;;4.50;3.25;;;;;;;;5054824;28;45489;-81
2022/04/13 03:15:01;;;;;;;;;3.00;3.00;;;;;;;;5054829;28;45308;-80
2022/04/13 03:17:27;;;;;;;;;3.00;3.00;;;;;;;;5052539;28;45527;-80
2022/04/13 03:19:52;;;;;;;;;4.25;2.00;;;;;;;;5055244;28;45371;-80
2022/04/13 03:22:18;;;;;;;;;3.50;3.50;;;;;;;;5057025;28;46262;-80
2022/04/13 03:24:43;;;;;;;;;3.50;3.50;;;;;;;;5054928;28;45493;-80
2022/04/13 03:27:08;;;;;;;;;3.75;3.75;;;;;;;;5054638;28;45899;-80
2022/04/13 03:29:33;;;;;;;;;3.50;3.00;;;;;;;;5054686;28;45478;-81
2022/04/13 03:31:59;;;;;;;;;6.25;5.75;;;;;;;;5054383;28;46257;-81
2022/04/13 03:34:24;;;;;;;;;4.25;4.25;;;;;;;;5056773;28;45387;-81
2022/04/13 03:36:49;;;;;;;;;3.75;3.50;;;;;;;;5055986;28;45501;-81
2022/04/13 03:39:15;;;;;;;;;4.00;3.75;;;;;;;;5055004;28;45460;-80
2022/04/13 03:41:40;;;;;;;;;5.00;5.00;;;;;;;;5054056;28;46363;-79
2022/04/13 03:44:06;;;;;;;;;3.50;3.50;;;;;;;;5056036;28;45500;-81
2022/04/13 03:46:31;;;;;;;;;2.00;2.00;;;;;;;;5055339;28;45268;-82
2022/04/13 03:48:56;;;;;;;;;5.25;4.00;;;;;;;;5060029;28;45507;-80
2022/04/13 03:51:22;;;;;;;;;4.50;4.00;;;;;;;;5054313;28;45418;-81
2022/04/13 03:53:47;;;;;;;;;5.50;3.25;;;;;;;;5041018;28;45513;-80
2022/04/13 03:56:12;;;;;;;;;3.00;3.00;;;;;;;;5054115;28;45513;-80
2022/04/13 03:58:40;;;;;;;;;2.75;2.75;;;;;;;;5054648;28;45458;-80
2022/04/13 04:01:06;;;;;;;;;3.25;3.25;;;;;;;;5055449;28;46278;-80
2022/04/13 04:03:31;;;;;;;;;7.00;5.25;;;;;;;;5054484;28;45349;-80
2022/04/13 04:05:56;;;;;;;;;7.50;6.50;;;;;;;;5054602;28;45519;-81
2022/04/13 04:08:23;;;;;;;;;6.75;3.00;;;;;;;;5054867;28;45443;-81
2022/04/13 04:10:49;;;;;;;;;7.50;4.75;;;;;;;;5044029;28;46076;-80
2022/04/13 04:13:14;;;;;;;;;7.25;6.00;;;;;;;;5055703;28;45777;-80
2022/04/13 04:15:39;;;;;;;;;4.50;4.50;;;;;;;;5053740;28;45421;-80
2022/04/13 04:18:06;;;;;;;;;3.00;3.00;;;;;;;;5053962;28;45421;-81
2022/04/13 04:20:31;;;;;;;;;5.25;5.25;;;;;;;;5053810;28;47210;-80
2022/04/13 04:22:56;;;;;;;;;3.50;3.25;;;;;;;;5034332;28;46151;-81
2022/04/13 04:25:21;;;;;;;;;7.25;6.00;;;;;;;;5055692;28;45296;-80
2022/04/13 04:27:46;;;;;;;;;14.25;14.25;;;;;;;;5052164;28;45767;-81
2022/04/13 04:30:12;;;;;;;;;18.25;17.25;;;;;;;;5053367;28;46835;-80
2022/04/13 04:32:37;;;;;;;;;5.50;5.50;;;;;;;;5054457;28;45554;-79
2022/04/13 04:35:03;;;;;;;;;8.75;7.25;;;;;;;;5053999;28;45517;-80
2022/04/13 04:37:29;;;;;;;;;8.00;7.50;;;;;;;;5058634;28;45276;-81
2022/04/13 04:39:54;;;;;;;;;7.00;7.00;;;;;;;;5055107;28;47325;-81
2022/04/13 04:42:19;;;;;;;;;9.00;9.00;;;;;;;;5052214;28;45328;-81
2022/04/13 04:44:46;;;;;;;;;8.00;8.00;;;;;;;;5053499;28;45282;-79
2022/04/13 04:47:11;;;;;;;;;5.75;5.75;;;;;;;;5053612;28;45264;-80
2022/04/13 04:49:36;;;;;;;;;7.75;7.25;;;;;;;;5053268;28;47403;-81
2022/04/13 04:52:01;;;;;;;;;5.50;5.50;;;;;;;;5054535;28;45409;-82
2022/04/13 04:54:27;;;;;;;;;8.25;7.00;;;;;;;;5051906;28;45437;-81
2022/04/13 04:56:52;;;;;;;;;6.25;6.25;;;;;;;;5052922;28;45351;-80
2022/04/13 04:59:17;;;;;;;;;7.00;6.00;;;;;;;;5033882;28;46922;-81
2022/04/13 05:01:42;;;;;;;;;7.50;7.50;;;;;;;;5053098;28;45377;-80
2022/04/13 05:04:08;;;;;;;;;6.00;6.00;;;;;;;;5052936;28;45218;-79
2022/04/13 05:06:33;;;;;;;;;7.50;7.50;;;;;;;;5053208;28;45485;-79
2022/04/13 05:08:58;;;;;;;;;7.75;7.50;;;;;;;;5055923;28;47198;-80
2022/04/13 05:11:24;;;;;;;;;8.75;8.00;;;;;;;;5040405;28;45507;-82
2022/04/13 05:13:49;;;;;;;;;9.00;8.00;;;;;;;;5054080;28;45459;-81
2022/04/13 05:16:17;;;;;;;;;7.50;7.00;;;;;;;;5050045;28;45367;-80
2022/04/13 05:18:45;;;;;;;;;17.00;17.00;;;;;;;;5050664;28;46825;-80
2022/04/13 05:21:10;;;;;;;;;11.50;10.25;;;;;;;;5052520;28;45619;-79
2022/04/13 05:23:36;;;;;;;;;12.25;11.50;;;;;;;;5051808;28;45306;-79
2022/04/13 05:26:02;;;;;;;;;12.75;11.75;;;;;;;;5052490;28;45303;-80
2022/04/13 05:28:27;;;;;;;;;7.75;7.00;;;;;;;;5053427;28;46241;-80
2022/04/13 05:30:52;;;;;;;;;6.25;6.25;;;;;;;;5054381;28;45434;-80
2022/04/13 05:33:17;;;;;;;;;6.75;6.75;;;;;;;;5052577;28;45339;-80
2022/04/13 05:35:45;;;;;;;;;8.25;7.50;;;;;;;;5051322;28;45399;-84
2022/04/13 05:38:10;;;;;;;;;8.25;7.25;;;;;;;;5054280;28;45473;-78
2022/04/13 05:40:35;;;;;;;;;8.00;8.00;;;;;;;;5055746;28;45352;-80
2022/04/13 05:43:01;;;;;;;;;9.50;8.00;;;;;;;;5058622;28;45449;-78
2022/04/13 05:45:26;;;;;;;;;9.00;8.00;;;;;;;;5055674;28;45392;-77
2022/04/13 05:47:51;;;;;;;;;8.00;8.00;;;;;;;;5053992;28;45529;-77
2022/04/13 05:50:17;;;;;;;;;9.00;9.00;;;;;;;;5061376;28;45574;-77
2022/04/13 05:52:43;;;;;;;;;9.25;7.75;;;;;;;;5054806;28;45374;-79
2022/04/13 05:55:09;;;;;;;;;8.50;8.50;;;;;;;;5056389;28;45524;-78
2022/04/13 05:57:34;;;;;;;;;11.50;10.75;;;;;;;;5054881;28;47072;-77
2022/04/13 05:59:59;;;;;;;;;6.75;6.75;;;;;;;;5055534;28;45407;-79
2022/04/13 06:02:25;;;;;;;;;16.25;13.50;;;;;;;;5055372;28;45521;-78
2022/04/13 06:04:50;;;;;;;;;11.25;10.75;;;;;;;;5056291;28;45225;-78
2022/04/13 06:07:15;;;;;;;;;12.00;10.25;;;;;;;;5056990;28;46783;-78
2022/04/13 06:09:41;;;;;;;;;12.25;11.25;;;;;;;;5055442;28;45461;-80
2022/04/13 06:12:06;;;;;;;;;8.75;8.50;;;;;;;;5056731;28;45444;-80
2022/04/13 06:14:32;;;;;;;;;7.50;7.50;;;;;;;;5058216;28;45348;-80
2022/04/13 06:16:57;;;;;;;;;12.25;8.75;;;;;;;;5057684;28;46228;-79
2022/04/13 06:19:22;;;;;;;;;9.75;9.75;;;;;;;;5056694;28;45309;-81
2022/04/13 06:21:48;;;;;;;;;9.25;8.50;;;;;;;;5055790;28;45382;-80
2022/04/13 06:24:13;;;;;;;;;13.00;13.00;;;;;;;;5057630;28;45591;-80
2022/04/13 06:26:38;;;;;;;;;8.75;7.75;;;;;;;;5054290;28;46059;-80
2022/04/13 06:29:03;;;;;;;;;8.75;6.50;;;;;;;;5050853;28;45460;-81
2022/04/13 06:31:29;;;;;;;;;15.00;12.00;;;;;;;;5058444;28;45493;-80
2022/04/13 06:33:54;;;;;;;;;14.00;13.50;;;;;;;;5056361;28;45434;-78
2022/04/13 06:36:19;;;;;;;;;13.25;12.25;;;;;;;;5054463;28;45438;-80
2022/04/13 06:38:44;;;;;;;;;16.25;12.25;;;;;;;;5052830;28;45417;-81
2022/04/13 06:41:10;;;;;;;;;21.50;20.00;;;;;;;;5054867;28;45253;-81
2022/04/13 06:43:35;;;;;;;;;11.50;10.00;;;;;;;;5038075;28;45518;-81
2022/04/13 06:46:00;;;;;;;;;10.75;9.25;;;;;;;;5058003;28;46139;-81
2022/04/13 06:48:26;;;;;;;;;7.50;7.50;;;;;;;;5057437;28;45310;-80
2022/04/13 06:50:51;;;;;;;;;11.25;9.75;;;;;;;;5054941;28;45498;-81
2022/04/13 06:53:17;;;;;;;;;17.75;13.75;;;;;;;;5054738;28;45502;-82
2022/04/13 06:55:43;;;;;;;;;9.75;9.75;;;;;;;;5053822;28;46550;-80
2022/04/13 06:58:08;;;;;;;;;10.50;10.25;;;;;;;;5055497;28;45535;-81
2022/04/13 07:00:34;;;;;;;;;11.50;11.50;;;;;;;;5052349;28;45512;-81
2022/04/13 07:02:59;;;;;;;;;20.00;14.75;;;;;;;;5053395;28;45515;-81
2022/04/13 07:05:25;;;;;;;;;12.00;11.75;;;;;;;;5054164;28;45359;-80
2022/04/13 07:07:50;;;;;;;;;14.50;14.50;;;;;;;;5054648;28;45405;-81
2022/04/13 07:10:16;;;;;;;;;14.25;13.25;;;;;;;;5056519;28;45287;-81
2022/04/13 07:12:41;;;;;;;;;10.25;9.75;;;;;;;;5054536;28;45257;-81
2022/04/13 07:15:06;;;;;;;;;11.25;11.25;;;;;;;;5053886;28;46122;-81
2022/04/13 07:17:32;;;;;;;;;14.50;13.50;;;;;;;;5054332;28;45799;-82
2022/04/13 07:19:57;;;;;;;;;11.50;9.75;;;;;;;;5034875;28;45362;-82
2022/04/13 07:22:23;;;;;;;;;17.75;12.00;;;;;;;;5040634;28;45558;-81
2022/04/13 07:24:49;;;;;;;;;10.25;10.25;;;;;;;;5054863;28;45595;-81
2022/04/13 07:27:14;;;;;;;;;11.75;9.25;;;;;;;;5052269;28;45309;-80
2022/04/13 07:29:40;;;;;;;;;14.00;14.00;;;;;;;;5054629;28;45462;-81
2022/04/13 07:32:06;;;;;;;;;13.00;10.50;;;;;;;;5052964;28;45447;-80
2022/04/13 07:34:32;;;;;;;;;15.00;13.25;;;;;;;;5053957;28;45534;-79
2022/04/13 07:36:57;;;;;;;;;16.00;11.75;;;;;;;;5054742;28;45332;-81
2022/04/13 07:39:23;;;;;;;;;13.25;11.25;;;;;;;;5053199;28;45344;-80
2022/04/13 07:41:48;;;;;;;;;16.25;13.25;;;;;;;;5053764;28;45364;-80
2022/04/13 07:44:14;;;;;;;;;15.75;14.50;;;;;;;;5053622;28;46158;-80
2022/04/13 07:46:39;;;;;;;;;16.25;15.25;;;;;;;;5053799;28;45540;-80
2022/04/13 07:49:06;;;;;;;;;19.75;17.50;;;;;;;;5055072;28;45423;-80
2022/04/13 07:51:31;;;;;;;;;17.50;16.25;;;;;;;;5054379;28;45382;-81
2022/04/13 07:53:56;;;;;;;;;15.25;15.00;;;;;;;;5046707;28;45640;-81
2022/04/13 07:56:22;;;;;;;;;18.50;13.75;;;;;;;;5053001;28;45314;-80
2022/04/13 07:58:47;;;;;;;;;14.00;13.00;;;;;;;;5054007;28;45476;-80
2022/04/13 08:01:14;;;;;;;;;18.00;13.50;;;;;;;;5055859;28;45602;-80
2022/04/13 08:03:39;;;;;;;;;13.00;13.00;;;;;;;;5051868;28;45602;-81
2022/04/13 08:06:04;;;;;;;;;23.75;18.50;;;;;;;;5052909;28;45303;-82
2022/04/13 08:08:30;;;;;;;;;21.00;19.75;;;;;;;;5052733;28;45366;-80
2022/04/13 08:10:55;;;;;;;;;25.25;24.25;;;;;;;;5053661;28;45286;-80
2022/04/13 08:13:20;;;;;;;;;25.75;19.00;;;;;;;;5058724;28;46398;-82
2022/04/13 08:15:46;;;;;;;;;17.75;16.75;;;;;;;;5056705;28;45283;-80
2022/04/13 08:18:11;;;;;;;;;16.00;15.25;;;;;;;;5053691;28;45436;-80
2022/04/13 08:20:36;;;;;;;;;16.75;14.50;;;;;;;;5053841;28;45553;-81
2022/04/13 08:23:01;;;;;;;;;28.00;20.75;;;;;;;;5052919;28;46236;-81
2022/04/13 08:25:27;;;;;;;;;15.50;13.25;;;;;;;;5054414;28;45415;-80
2022/04/13 08:27:52;;;;;;;;;28.25;21.75;;;;;;;;5053474;28;45326;-81
2022/04/13 08:30:17;;;;;;;;;17.75;16.25;;;;;;;;5052394;28;45415;-81
2022/04/13 08:32:42;;;;;;;;;21.00;19.00;;;;;;;;5051908;28;46523;-80
2022/04/13 08:35:09;;;;;;;;;19.25;18.50;;;;;;;;5051847;28;45421;-81
2022/04/13 08:37:35;;;;;;;;;20.25;19.50;;;;;;;;5053787;28;45610;-81
2022/04/13 08:40:00;;;;;;;;;25.25;22.75;;;;;;;;5052548;28;45305;-81
2022/04/13 08:42:38;;;;;;;;;22.25;20.75;;;;;;;;5052426;28;45987;-80
2022/04/13 08:45:08;;;;;;;;;22.75;21.50;;;;;;;;5053272;28;45512;-80
2022/04/13 08:47:36;;;;;;;;;26.00;23.50;;;;;;;;5052684;28;45502;-79
2022/04/13 08:50:02;;;;;;;;;28.25;23.50;;;;;;;;5052665;28;45603;-80
2022/04/13 08:52:31;;;;;;;;;21.25;20.75;;;;;;;;5053345;28;45575;-81
2022/04/13 08:54:56;;;;;;;;;27.00;25.00;;;;;;;;5053893;28;45500;-80
2022/04/13 08:57:25;;;;;;;;;26.75;22.25;;;;;;;;5053333;28;45525;-80
2022/04/13 08:59:56;;;;;;;;;18.50;17.00;;;;;;;;5050523;28;45419;-80
2022/04/13 09:02:30;;;;;;;;;21.50;19.50;;;;;;;;5045513;28;45476;-79
2022/04/13 09:04:59;;;;;;;;;16.75;15.75;;;;;;;;5038010;28;45355;-80
2022/04/13 09:07:29;;;;;;;;;23.50;21.25;;;;;;;;5054079;28;45288;-79
2022/04/13 09:09:57;;;;;;;;;27.00;22.75;;;;;;;;5053598;28;45450;-81
2022/04/13 09:12:22;;;;;;;;;18.75;17.75;;;;;;;;5052221;28;46359;-82
2022/04/13 09:14:48;;;;;;;;;20.50;19.25;;;;;;;;5050461;28;45302;-80
2022/04/13 09:17:13;;;;;;;;;37.75;32.75;;;;;;;;5052186;28;45428;-80
2022/04/13 09:19:38;;;;;;;;;24.75;23.50;;;;;;;;5052347;28;45297;-81
2022/04/13 09:22:08;;;;;;;;;18.50;17.75;;;;;;;;5054553;28;46571;-82
2022/04/13 09:24:36;;;;;;;;;21.25;21.00;;;;;;;;5052041;28;45546;-80
2022/04/13 09:27:03;;;;;;;;;19.50;17.00;;;;;;;;5052062;28;45367;-81
2022/04/13 09:29:28;;;;;;;;;19.50;19.00;;;;;;;;5037834;28;45483;-81
2022/04/13 09:31:53;;;;;;;;;23.75;22.00;;;;;;;;5053675;28;45319;-81
2022/04/13 09:34:18;;;;;;;;;26.00;24.25;;;;;;;;5054184;28;45368;-81
2022/04/13 09:36:44;;;;;;;;;46.25;40.25;;;;;;;;5051921;28;45501;-81
2022/04/13 09:39:10;;;;;;;;;30.25;25.75;;;;;;;;5051558;28;45633;-82
2022/04/13 09:41:36;;;;;;;;;24.25;23.25;;;;;;;;5052148;28;46992;-81
2022/04/13 09:44:02;;;;;;;;;24.75;20.25;;;;;;;;5051198;28;45294;-81
2022/04/13 09:46:29;;;;;;;;;24.25;17.50;;;;;;;;5052738;28;45465;-80
2022/04/13 09:49:27;;;;;;;;;29.75;28.25;;;;;;;;5052597;28;45567;-81
2022/04/13 09:51:52;;;;;;;;;13.00;12.75;;;;;;;;4983246;28;46721;-82
2022/04/13 09:54:22;;;;;;;;;13.75;12.75;;;;;;;;4979018;28;45539;-81
2022/04/13 09:56:48;;;;;;;;;15.50;14.50;;;;;;;;4975127;28;45571;-81
2022/04/13 09:59:26;;;;;;;;;11.75;11.75;;;;;;;;4983399;28;45365;-80
2022/04/13 10:01:51;;;;;;;;;17.00;16.50;;;;;;;;4974081;28;45626;-80
2022/04/13 10:04:26;;;;;;;;;28.75;27.25;;;;;;;;4990349;28;45358;-80
2022/04/13 10:06:52;;;;;;;;;18.00;14.75;;;;;;;;4977090;28;45417;-81
2022/04/13 10:09:19;;;;;;;;;11.25;8.00;;;;;;;;4978675;28;45468;-81
2022/04/13 10:11:57;;;;;;;;;11.75;10.00;;;;;;;;4983208;28;46938;-82
2022/04/13 10:14:22;;;;;;;;;19.00;18.50;;;;;;;;4984491;28;45370;-80
2022/04/13 10:16:51;;;;;;;;;10.00;10.00;;;;;;;;4988240;28;45489;-81
2022/04/13 10:19:18;;;;;;;;;10.25;10.00;;;;;;;;4983488;28;45431;-81
2022/04/13 10:21:48;;;;;;;;;13.25;11.50;;;;;;;;4981561;28;45442;-80
2022/04/13 10:24:29;;;;;;;;;10.00;9.50;;;;;;;;4981820;28;45390;-80
2022/04/13 10:27:07;;;;;;;;;17.00;15.00;;;;;;;;5003637;28;45541;-81
2022/04/13 10:29:34;;;;;;;;;9.00;9.00;;;;;;;;5054601;28;45519;-80
2022/04/13 10:32:03;;;;;;;;;9.75;8.75;;;;;;;;5054653;28;45361;-81
2022/04/13 10:34:28;;;;;;;;;10.00;10.00;;;;;;;;5055825;28;45388;-81
2022/04/13 10:36:54;;;;;;;;;14.25;12.50;;;;;;;;5059488;28;45346;-81
2022/04/13 10:39:19;;;;;;;;;15.50;14.75;;;;;;;;5058014;28;45404;-82
2022/04/13 10:41:44;;;;;;;;;12.25;11.00;;;;;;;;5054562;28;46030;-81
2022/04/13 10:44:10;;;;;;;;;15.50;13.00;;;;;;;;5054435;28;45464;-81
2022/04/13 10:46:35;;;;;;;;;14.75;13.75;;;;;;;;5054605;28;45466;-81
2022/04/13 10:49:07;;;;;;;;;15.25;12.75;;;;;;;;5057144;28;45517;-81
2022/04/13 10:51:34;;;;;;;;;8.75;8.75;;;;;;;;5053695;28;45729;-82
2022/04/13 10:54:00;;;;;;;;;11.00;9.75;;;;;;;;5053873;28;45527;-81
2022/04/13 10:56:32;;;;;;;;;9.00;8.00;;;;;;;;5053358;28;45444;-82
2022/04/13 10:59:09;;;;;;;;;9.00;9.00;;;;;;;;5054400;28;45353;-80
2022/04/13 11:02:02;;;;;;;;;9.00;8.00;;;;;;;;5053696;28;46253;-81
2022/04/13 11:04:31;;;;;;;;;9.75;7.25;;;;;;;;5047942;28;45359;-82
2022/04/13 11:06:57;;;;;;;;;7.50;7.50;;;;;;;;5054851;28;45295;-82
2022/04/13 11:09:35;;;;;;;;;14.50;11.50;;;;;;;;5053613;28;45530;-82
2022/04/13 11:12:01;;;;;;;;;11.75;11.50;;;;;;;;5054038;28;45428;-82
2022/04/13 11:14:27;;;;;;;;;13.25;11.75;;;;;;;;5041947;28;45353;-82
2022/04/13 11:17:04;;;;;;;;;14.75;13.50;;;;;;;;5055906;28;45376;-82
2022/04/13 11:19:30;;;;;;;;;14.50;14.00;;;;;;;;5054274;28;45285;-81
2022/04/13 11:21:55;;;;;;;;;13.75;12.50;;;;;;;;5053728;28;45946;-81
2022/04/13 11:24:46;;;;;;;;;12.00;11.75;;;;;;;;5053537;28;45341;-82
2022/04/13 11:27:12;;;;;;;;;12.00;11.00;;;;;;;;5049546;28;45667;-81
2022/04/13 11:29:37;;;;;;;;;13.25;10.00;;;;;;;;5038107;28;45461;-81
2022/04/13 11:32:04;;;;;;;;;10.25;9.50;;;;;;;;5051961;28;47360;-82
2022/04/13 11:34:29;;;;;;;;;9.50;8.50;;;;;;;;5054463;28;45392;-80
2022/04/13 11:37:02;;;;;;;;;14.25;12.25;;;;;;;;5053636;28;45253;-81
2022/04/13 11:39:42;;;;;;;;;16.25;12.75;;;;;;;;5052449;28;45661;-81
2022/04/13 11:42:17;;;;;;;;;6.25;6.25;;;;;;;;5053665;28;46232;-81
2022/04/13 11:44:53;;;;;;;;;7.00;6.25;;;;;;;;5053160;28;45412;-81
2022/04/13 11:47:18;;;;;;;;;7.50;7.50;;;;;;;;5054800;28;45304;-81
2022/04/13 11:49:54;;;;;;;;;11.00;9.25;;;;;;;;5056493;28;45627;-80
2022/04/13 11:52:38;;;;;;;;;21.00;16.25;;;;;;;;5055570;28;45716;-80
2022/04/13 11:55:13;;;;;;;;;12.25;12.25;;;;;;;;5054300;28;45305;-80
2022/04/13 11:57:57;;;;;;;;;8.50;8.00;;;;;;;;5053980;28;46282;-81
2022/04/13 12:00:35;;;;;;;;;8.00;8.00;;;;;;;;5052974;28;45465;-81
2022/04/13 12:03:01;;;;;;;;;9.00;7.00;;;;;;;;5052913;28;45675;-80
2022/04/13 12:05:27;;;;;;;;;9.00;9.00;;;;;;;;5051521;28;45592;-80
2022/04/13 12:07:53;;;;;;;;;11.75;11.00;;;;;;;;5052901;28;45326;-81
2022/04/13 12:10:18;;;;;;;;;9.00;8.00;;;;;;;;5055052;28;45332;-82
2022/04/13 12:12:50;;;;;;;;;10.00;10.00;;;;;;;;5055002;28;45460;-80
2022/04/13 12:15:15;;;;;;;;;7.00;6.25;;;;;;;;5048082;28;45295;-81
2022/04/13 12:17:41;;;;;;;;;8.50;6.25;;;;;;;;5054143;28;45305;-81
2022/04/13 12:20:06;;;;;;;;;6.50;6.50;;;;;;;;5054432;28;45423;-80
2022/04/13 12:22:33;;;;;;;;;9.00;8.00;;;;;;;;5059132;28;47101;-80
2022/04/13 12:24:59;;;;;;;;;9.50;9.00;;;;;;;;5055256;28;45348;-81
2022/04/13 12:27:24;;;;;;;;;7.75;7.25;;;;;;;;5050777;28;45344;-80
2022/04/13 12:29:49;;;;;;;;;8.75;7.75;;;;;;;;5052980;28;45360;-81
2022/04/13 12:32:18;;;;;;;;;9.50;9.50;;;;;;;;5052444;28;46428;-80
2022/04/13 12:34:43;;;;;;;;;7.00;7.00;;;;;;;;5052085;28;45359;-81
2022/04/13 12:37:08;;;;;;;;;14.75;13.75;;;;;;;;5053232;28;45439;-80
2022/04/13 12:39:34;;;;;;;;;8.50;8.00;;;;;;;;5051479;28;45390;-81
2022/04/13 12:42:01;;;;;;;;;9.00;7.75;;;;;;;;5052267;28;45510;-81
2022/04/13 12:44:27;;;;;;;;;9.75;9.75;;;;;;;;5052244;28;45374;-81
2022/04/13 12:47:08;;;;;;;;;7.50;7.50;;;;;;;;5052458;28;45301;-80
2022/04/13 12:49:36;;;;;;;;;8.00;6.00;;;;;;;;5052898;28;45463;-81
2022/04/13 12:52:01;;;;;;;;;6.75;5.00;;;;;;;;5051981;28;45511;-80
2022/04/13 12:54:26;;;;;;;;;10.00;9.00;;;;;;;;5052628;28;45411;-80
2022/04/13 12:56:51;;;;;;;;;6.00;5.00;;;;;;;;5056074;28;45464;-80
2022/04/13 12:59:18;;;;;;;;;5.50;5.50;;;;;;;;5053386;28;45308;-81
2022/04/13 13:01:46;;;;;;;;;10.00;5.00;;;;;;;;5054199;28;47186;-81
2022/04/13 13:04:15;;;;;;;;;4.00;3.75;;;;;;;;5054596;28;45344;-81
2022/04/13 13:07:01;;;;;;;;;5.50;5.50;;;;;;;;5052015;28;45389;-80
2022/04/13 13:09:30;;;;;;;;;4.50;4.50;;;;;;;;5051491;28;45368;-82
2022/04/13 13:12:22;;;;;;;;;5.25;4.25;;;;;;;;5051823;28;47308;-81
2022/04/13 13:14:48;;;;;;;;;7.50;5.25;;;;;;;;5047705;28;45466;-79
2022/04/13 13:17:13;;;;;;;;;2.00;2.00;;;;;;;;5050454;28;45401;-81
2022/04/13 13:19:38;;;;;;;;;7.25;6.00;;;;;;;;5054400;28;45393;-82
2022/04/13 13:22:11;;;;;;;;;7.50;6.50;;;;;;;;5052230;28;46188;-81
2022/04/13 13:24:37;;;;;;;;;7.25;7.25;;;;;;;;5047669;28;45363;-81
2022/04/13 13:27:05;;;;;;;;;12.25;12.25;;;;;;;;5052284;28;45454;-81
2022/04/13 13:29:31;;;;;;;;;8.75;8.75;;;;;;;;5049797;28;45514;-80
2022/04/13 13:31:56;;;;;;;;;11.50;10.75;;;;;;;;5052124;28;46197;-80
2022/04/13 13:34:22;;;;;;;;;8.50;8.50;;;;;;;;5054069;28;45379;-80
2022/04/13 13:36:57;;;;;;;;;9.75;7.50;;;;;;;;5051033;28;45330;-80
2022/04/13 13:39:25;;;;;;;;;8.75;7.75;;;;;;;;5053969;28;45475;-81
2022/04/13 13:42:00;;;;;;;;;8.00;6.25;;;;;;;;5052484;28;45479;-80
2022/04/13 13:44:25;;;;;;;;;6.75;6.75;;;;;;;;5052209;28;47706;-81
2022/04/13 13:46:51;;;;;;;;;8.50;5.75;;;;;;;;5050791;28;45288;-82
2022/04/13 13:49:16;;;;;;;;;6.50;5.50;;;;;;;;5053245;28;45542;-81
2022/04/13 13:51:43;;;;;;;;;5.75;4.25;;;;;;;;5050342;28;46643;-81
2022/04/13 13:54:08;;;;;;;;;6.00;6.00;;;;;;;;5050468;28;45507;-82
2022/04/13 13:56:33;;;;;;;;;12.50;8.25;;;;;;;;5050785;28;45520;-82
2022/04/13 13:58:59;;;;;;;;;7.25;6.25;;;;;;;;5050384;28;45422;-80
2022/04/13 14:01:26;;;;;;;;;4.00;4.00;;;;;;;;5054275;28;47097;-82
2022/04/13 14:03:51;;;;;;;;;6.25;5.25;;;;;;;;5055382;28;45356;-81
2022/04/13 14:06:17;;;;;;;;;6.00;6.00;;;;;;;;5053208;28;45639;-80
2022/04/13 14:08:42;;;;;;;;;11.50;8.75;;;;;;;;5055135;28;45568;-81
2022/04/13 14:11:07;;;;;;;;;6.50;6.50;;;;;;;;5054833;28;45387;-81
2022/04/13 14:13:32;;;;;;;;;6.75;6.25;;;;;;;;5055278;28;45570;-82
2022/04/13 14:15:59;;;;;;;;;6.75;6.00;;;;;;;;5056422;28;45412;-81
2022/04/13 14:18:24;;;;;;;;;8.00;7.75;;;;;;;;5053983;28;45685;-80
2022/04/13 14:20:50;;;;;;;;;9.25;8.75;;;;;;;;5053606;28;46104;-82
2022/04/13 14:23:15;;;;;;;;;6.00;5.00;;;;;;;;5053740;28;45615;-81
2022/04/13 14:25:40;;;;;;;;;10.25;10.25;;;;;;;;5054128;28;45419;-81
2022/04/13 14:28:06;;;;;;;;;5.25;4.25;;;;;;;;5056351;28;45411;-83
2022/04/13 14:30:31;;;;;;;;;9.50;7.25;;;;;;;;5055651;28;45356;-82